Time;durP1;ratioP1;P1;durP2;ratioP2;P2;SDS_P1;SDS_P2;PMS_P1;PMS_P2;Temp;Humidity;BMP_temperature;BMP_pressure;BME280_temperature;BME280_humidity;BME280_pressure;Samples;Min_cycle;Max_cycle;Signal;HPM_P1;HPM_P2
2020/12/22 00:00:05;;;;;;;148.27;110.90;;;10.20;99.90;;;;;;4943877;29;20042;-74
2020/12/22 00:02:31;;;;;;;139.45;102.35;;;10.20;99.90;;;;;;4941052;29;20386;-76
2020/12/22 00:04:57;;;;;;;143.40;109.68;;;10.10;99.90;;;;;;4939731;29;20034;-74
2020/12/22 00:07:22;;;;;;;129.30;100.35;;;10.10;99.90;;;;;;4944385;29;20043;-74
2020/12/22 00:09:48;;;;;;;148.32;113.20;;;10.10;99.90;;;;;;4940398;29;20027;-74
2020/12/22 00:12:16;;;;;;;152.63;120.25;;;10.00;99.90;;;;;;4943722;29;20027;-74
2020/12/22 00:14:43;;;;;;;156.30;122.22;;;10.10;99.90;;;;;;4941809;29;20027;-75
2020/12/22 00:17:09;;;;;;;157.35;123.32;;;10.10;99.90;;;;;;4938517;29;20024;-74
2020/12/22 00:19:34;;;;;;;147.82;115.63;;;10.20;99.90;;;;;;4927043;29;20050;-74
2020/12/22 00:22:00;;;;;;;159.35;102.40;;;10.20;99.90;;;;;;4945667;29;20032;-75
2020/12/22 00:24:26;;;;;;;169.07;112.85;;;10.10;99.90;;;;;;4943976;29;20047;-74
2020/12/22 00:26:52;;;;;;;165.73;119.22;;;10.00;99.90;;;;;;4924795;29;20035;-74
2020/12/22 00:29:27;;;;;;;169.50;124.50;;;10.10;99.90;;;;;;4944874;29;20550;-74
2020/12/22 00:32:00;;;;;;;155.80;119.88;;;10.20;99.90;;;;;;4945262;29;20078;-75
2020/12/22 00:34:29;;;;;;;141.40;110.43;;;10.10;99.90;;;;;;4925492;29;20081;-75
2020/12/22 00:36:55;;;;;;;141.55;107.53;;;10.20;99.90;;;;;;4939640;29;20099;-75
2020/12/22 00:39:22;;;;;;;147.40;102.18;;;10.20;99.90;;;;;;4942044;29;20052;-75
2020/12/22 00:41:55;;;;;;;164.10;116.05;;;10.20;99.90;;;;;;4948072;29;20040;-75
2020/12/22 00:44:22;;;;;;;167.63;122.05;;;10.20;99.90;;;;;;4944567;29;20054;-75
2020/12/22 00:46:49;;;;;;;158.18;116.03;;;10.20;99.90;;;;;;4923819;29;20074;-75
2020/12/22 00:49:14;;;;;;;161.38;120.60;;;10.20;99.90;;;;;;4945161;29;20044;-75
2020/12/22 00:51:40;;;;;;;149.30;107.80;;;10.20;99.90;;;;;;4944722;29;20094;-75
2020/12/22 00:54:06;;;;;;;152.25;121.82;;;10.20;99.90;;;;;;4925274;29;20066;-75
2020/12/22 00:56:32;;;;;;;161.68;120.88;;;10.20;99.90;;;;;;4946911;29;20034;-74
2020/12/22 00:58:58;;;;;;;164.55;124.18;;;10.30;99.90;;;;;;4943598;28;20035;-75
2020/12/22 01:01:23;;;;;;;149.55;109.15;;;10.40;99.90;;;;;;4949644;29;20042;-74
2020/12/22 01:03:49;;;;;;;161.10;119.20;;;10.30;99.90;;;;;;4947774;29;20028;-75
2020/12/22 01:06:16;;;;;;;147.13;110.35;;;10.20;99.90;;;;;;4922438;29;20111;-75
2020/12/22 01:08:43;;;;;;;144.70;106.15;;;10.20;99.90;;;;;;4949034;29;20023;-74
2020/12/22 01:11:09;;;;;;;155.57;110.95;;;10.20;99.90;;;;;;4947567;29;20023;-75
2020/12/22 01:13:35;;;;;;;150.07;113.18;;;10.20;99.90;;;;;;4927715;29;20053;-76
2020/12/22 01:16:00;;;;;;;152.82;114.50;;;10.20;99.90;;;;;;4947248;29;20118;-75
2020/12/22 01:18:26;;;;;;;167.25;121.10;;;10.20;99.90;;;;;;4934928;29;20024;-75
2020/12/22 01:20:52;;;;;;;171.20;126.70;;;10.20;99.90;;;;;;4945651;29;20024;-75
2020/12/22 01:23:18;;;;;;;153.10;119.28;;;10.20;99.90;;;;;;4947695;29;20052;-75
2020/12/22 01:25:44;;;;;;;152.90;114.68;;;10.20;99.90;;;;;;4937683;29;20679;-75
2020/12/22 01:28:10;;;;;;;161.43;116.40;;;10.20;99.90;;;;;;4935448;29;20031;-76
2020/12/22 01:30:36;;;;;;;152.93;115.15;;;10.10;99.90;;;;;;4947510;29;20051;-75
2020/12/22 01:33:03;;;;;;;172.90;122.68;;;10.20;99.90;;;;;;4946226;29;20046;-75
2020/12/22 01:35:29;;;;;;;158.20;125.03;;;10.30;99.90;;;;;;4931616;29;20032;-75
2020/12/22 01:37:55;;;;;;;166.90;121.78;;;10.50;99.90;;;;;;4945548;29;20035;-75
2020/12/22 01:40:20;;;;;;;169.30;124.68;;;10.50;99.90;;;;;;4947061;29;20427;-75
2020/12/22 01:42:46;;;;;;;162.07;121.75;;;10.30;99.90;;;;;;4946243;29;20611;-75
2020/12/22 01:45:13;;;;;;;165.82;123.60;;;10.40;99.90;;;;;;4953455;29;20027;-75
2020/12/22 01:47:47;;;;;;;169.20;125.30;;;10.30;99.90;;;;;;4943270;29;20152;-75
2020/12/22 01:50:15;;;;;;;156.82;117.47;;;10.40;99.90;;;;;;4933868;29;20034;-75
2020/12/22 01:52:42;;;;;;;167.45;118.43;;;10.40;99.90;;;;;;4942109;29;20031;-75
2020/12/22 01:55:08;;;;;;;156.45;115.28;;;10.40;99.90;;;;;;4945568;29;20028;-75
2020/12/22 01:57:34;;;;;;;172.48;117.95;;;10.40;99.90;;;;;;4944247;29;20090;-75
2020/12/22 02:00:00;;;;;;;162.45;116.97;;;10.30;99.90;;;;;;4945137;29;20040;-75
2020/12/22 02:02:27;;;;;;;144.80;106.15;;;10.40;99.90;;;;;;4949625;29;20102;-74
2020/12/22 02:04:53;;;;;;;175.90;123.10;;;10.40;99.90;;;;;;4937315;29;20124;-75
2020/12/22 02:07:20;;;;;;;174.82;127.25;;;10.40;99.90;;;;;;4929309;29;20116;-75
2020/12/22 02:09:49;;;;;;;166.70;116.30;;;10.50;99.90;;;;;;4928436;29;20050;-76
2020/12/22 02:12:16;;;;;;;157.07;110.65;;;10.40;99.90;;;;;;4928145;29;20038;-75
2020/12/22 02:14:43;;;;;;;177.85;122.15;;;10.40;99.90;;;;;;4944304;29;20402;-75
2020/12/22 02:17:09;;;;;;;171.63;122.30;;;10.30;99.90;;;;;;4950168;29;20039;-75
2020/12/22 02:19:36;;;;;;;175.57;117.28;;;10.20;99.90;;;;;;4943099;29;20051;-75
2020/12/22 02:22:02;;;;;;;160.70;122.70;;;10.20;99.90;;;;;;4950814;29;20026;-75
2020/12/22 02:24:28;;;;;;;160.30;116.72;;;10.30;99.90;;;;;;4939901;29;20027;-75
2020/12/22 02:26:53;;;;;;;180.27;126.25;;;10.40;99.90;;;;;;4948208;29;20031;-75
2020/12/22 02:29:19;;;;;;;185.57;132.50;;;10.30;99.90;;;;;;4939688;29;20115;-75
2020/12/22 02:31:45;;;;;;;175.68;123.75;;;10.40;99.90;;;;;;4942426;29;20028;-75
2020/12/22 02:34:11;;;;;;;174.18;119.85;;;10.40;99.90;;;;;;4920662;29;20088;-75
2020/12/22 02:36:37;;;;;;;186.90;136.10;;;10.40;99.90;;;;;;4941061;29;20126;-75
2020/12/22 02:39:04;;;;;;;197.50;129.75;;;10.40;99.90;;;;;;4945290;29;20055;-75
2020/12/22 02:41:30;;;;;;;212.85;134.45;;;10.40;99.90;;;;;;4945067;29;20482;-75
2020/12/22 02:43:56;;;;;;;187.20;127.20;;;10.30;99.90;;;;;;4945129;29;20034;-75
2020/12/22 02:46:22;;;;;;;179.50;116.93;;;10.30;99.90;;;;;;4946053;29;20038;-75
2020/12/22 02:48:48;;;;;;;185.05;123.65;;;10.30;99.90;;;;;;4941816;29;20028;-75
2020/12/22 02:51:14;;;;;;;187.98;128.40;;;10.20;99.90;;;;;;4941025;29;20078;-75
2020/12/22 02:53:39;;;;;;;187.95;125.22;;;10.10;99.90;;;;;;4948494;29;20027;-75
2020/12/22 02:56:05;;;;;;;201.02;126.40;;;10.10;99.90;;;;;;4927633;29;20034;-75
2020/12/22 02:58:31;;;;;;;201.90;133.88;;;10.20;99.90;;;;;;4942345;29;20027;-75
2020/12/22 03:00:57;;;;;;;219.63;135.30;;;10.20;99.90;;;;;;4942711;29;20118;-75
2020/12/22 03:03:22;;;;;;;203.88;131.65;;;10.30;99.90;;;;;;4950010;29;20027;-75
2020/12/22 03:05:48;;;;;;;199.38;132.68;;;10.30;99.90;;;;;;4942815;29;20035;-75
2020/12/22 03:08:14;;;;;;;200.25;131.07;;;10.30;99.90;;;;;;4945362;29;20023;-77
2020/12/22 03:10:40;;;;;;;215.73;134.50;;;10.20;99.90;;;;;;4951919;29;20386;-75
2020/12/22 03:13:06;;;;;;;198.30;127.95;;;10.30;99.90;;;;;;4941182;29;20478;-75
2020/12/22 03:15:32;;;;;;;221.13;138.30;;;10.20;99.90;;;;;;4929989;29;20035;-75
2020/12/22 03:17:58;;;;;;;209.68;131.43;;;10.20;99.90;;;;;;4923386;29;20043;-75
2020/12/22 03:20:24;;;;;;;219.73;138.20;;;10.20;99.90;;;;;;4950263;29;20032;-75
2020/12/22 03:22:50;;;;;;;201.90;127.88;;;10.20;99.90;;;;;;4949486;28;20046;-75
2020/12/22 03:25:15;;;;;;;216.90;141.68;;;10.20;99.90;;;;;;4944136;29;20115;-76
2020/12/22 03:27:41;;;;;;;219.50;136.35;;;10.20;99.90;;;;;;4930054;29;20078;-75
2020/12/22 03:30:10;;;;;;;216.40;141.55;;;10.10;99.90;;;;;;4944925;29;20023;-75
2020/12/22 03:32:36;;;;;;;225.55;140.70;;;10.10;99.90;;;;;;4939042;29;20034;-75
2020/12/22 03:35:03;;;;;;;209.38;131.77;;;10.20;99.90;;;;;;4913871;29;20075;-76
2020/12/22 03:37:29;;;;;;;208.80;133.00;;;10.10;99.90;;;;;;4949609;29;20106;-75
2020/12/22 03:40:00;;;;;;;201.35;127.13;;;10.10;99.90;;;;;;4940092;29;20071;-75
2020/12/22 03:42:27;;;;;;;188.13;118.40;;;10.20;99.90;;;;;;4930104;29;20035;-75
2020/12/22 03:44:53;;;;;;;158.70;95.72;;;10.10;99.90;;;;;;4948242;29;20047;-75
2020/12/22 03:47:18;;;;;;;131.98;82.53;;;10.10;99.90;;;;;;4939448;29;20024;-75
2020/12/22 03:49:44;;;;;;;156.25;90.78;;;10.10;99.90;;;;;;4942482;29;20592;-75
2020/12/22 03:52:11;;;;;;;150.13;90.88;;;10.00;99.90;;;;;;4927170;29;20020;-75
2020/12/22 03:54:37;;;;;;;144.13;82.55;;;10.10;99.90;;;;;;4943910;29;20442;-75
2020/12/22 03:57:05;;;;;;;141.18;89.93;;;10.00;99.90;;;;;;4951576;29;20098;-75
2020/12/22 03:59:32;;;;;;;150.98;85.28;;;10.00;99.90;;;;;;4938128;29;20110;-75
2020/12/22 04:01:59;;;;;;;151.60;91.63;;;10.10;99.90;;;;;;4941742;29;20050;-75
2020/12/22 04:04:25;;;;;;;137.98;85.93;;;10.10;99.90;;;;;;4945644;29;20038;-75
2020/12/22 04:06:51;;;;;;;97.63;61.00;;;10.10;99.90;;;;;;4944869;29;20371;-75
2020/12/22 04:09:18;;;;;;;97.68;58.83;;;10.10;99.90;;;;;;4940618;29;20045;-75
2020/12/22 04:11:45;;;;;;;95.70;60.17;;;10.00;99.90;;;;;;4921084;29;20497;-75
2020/12/22 04:14:11;;;;;;;102.68;64.30;;;10.00;99.90;;;;;;4939273;29;20079;-75
2020/12/22 04:16:38;;;;;;;101.03;63.25;;;10.00;99.90;;;;;;4925322;29;20028;-74
2020/12/22 04:19:05;;;;;;;109.40;63.83;;;10.10;99.90;;;;;;4936560;29;20434;-75
2020/12/22 04:21:31;;;;;;;76.40;56.28;;;10.10;99.90;;;;;;4932889;29;20051;-75
2020/12/22 04:23:57;;;;;;;89.55;61.08;;;10.10;99.90;;;;;;4942031;29;20042;-75
2020/12/22 04:26:24;;;;;;;104.13;66.95;;;10.20;99.90;;;;;;4928131;29;20020;-75
2020/12/22 04:28:49;;;;;;;102.38;72.60;;;10.20;99.90;;;;;;4941032;29;20483;-75
2020/12/22 04:31:16;;;;;;;103.78;67.00;;;10.10;99.90;;;;;;4939634;29;20034;-75
2020/12/22 04:33:42;;;;;;;112.10;73.40;;;10.10;99.90;;;;;;4944123;29;20443;-75
2020/12/22 04:36:08;;;;;;;170.75;104.03;;;10.10;99.90;;;;;;4946737;29;20390;-75
2020/12/22 04:38:34;;;;;;;176.70;106.78;;;10.10;99.90;;;;;;4932638;29;20035;-75
2020/12/22 04:41:03;;;;;;;160.85;94.25;;;10.10;99.90;;;;;;4939854;29;20062;-75
2020/12/22 04:43:31;;;;;;;164.40;99.55;;;10.20;99.90;;;;;;4931087;29;20019;-75
2020/12/22 04:46:03;;;;;;;180.88;106.05;;;10.20;99.90;;;;;;4932381;29;20065;-75
2020/12/22 04:48:37;;;;;;;168.60;98.78;;;10.10;99.90;;;;;;4934176;29;20048;-75
2020/12/22 04:51:12;;;;;;;190.95;104.07;;;10.10;99.90;;;;;;4924849;29;20031;-75
2020/12/22 04:53:38;;;;;;;183.05;106.13;;;10.20;99.90;;;;;;4949661;29;20082;-75
2020/12/22 04:56:08;;;;;;;175.85;108.22;;;10.20;99.90;;;;;;4950346;29;20111;-75
2020/12/22 04:58:35;;;;;;;178.38;106.70;;;10.20;99.90;;;;;;4949207;29;20027;-75
2020/12/22 05:01:01;;;;;;;188.90;109.53;;;10.10;99.90;;;;;;4949026;29;20027;-75
2020/12/22 05:03:27;;;;;;;200.38;116.57;;;10.00;99.90;;;;;;4925930;29;20024;-75
2020/12/22 05:05:53;;;;;;;181.13;110.07;;;10.00;99.90;;;;;;4943606;29;20206;-75
2020/12/22 05:08:20;;;;;;;185.85;109.68;;;10.10;99.90;;;;;;4950191;29;20019;-74
2020/12/22 05:10:48;;;;;;;206.57;112.07;;;10.10;99.90;;;;;;4942135;29;20020;-75
2020/12/22 05:13:15;;;;;;;195.07;111.80;;;10.10;99.90;;;;;;4948417;29;20020;-77
2020/12/22 05:15:48;;;;;;;193.25;108.72;;;10.10;99.90;;;;;;4950097;29;20035;-75
2020/12/22 05:18:14;;;;;;;190.88;109.15;;;10.20;99.90;;;;;;4935777;29;20163;-75
2020/12/22 05:20:45;;;;;;;198.52;109.03;;;10.20;99.90;;;;;;4942112;29;20031;-75
2020/12/22 05:23:16;;;;;;;195.10;105.45;;;10.10;99.90;;;;;;4946462;29;20055;-75
2020/12/22 05:25:44;;;;;;;194.45;107.90;;;10.00;99.90;;;;;;4947417;29;20031;-75
2020/12/22 05:28:14;;;;;;;191.27;110.57;;;9.90;99.90;;;;;;4945370;29;20027;-75
2020/12/22 05:30:40;;;;;;;193.80;105.03;;;9.90;99.90;;;;;;4928825;29;20506;-74
2020/12/22 05:33:06;;;;;;;203.80;106.95;;;10.00;99.90;;;;;;4927574;29;20517;-75
2020/12/22 05:35:46;;;;;;;188.93;110.15;;;10.00;99.90;;;;;;4941259;29;20031;-76
2020/12/22 05:38:13;;;;;;;183.38;102.10;;;10.00;99.90;;;;;;4942249;29;20043;-75
2020/12/22 05:40:43;;;;;;;193.43;105.32;;;10.00;99.90;;;;;;4944386;29;20047;-76
2020/12/22 05:43:10;;;;;;;182.77;102.00;;;10.00;99.90;;;;;;4945408;29;20071;-75
2020/12/22 05:45:38;;;;;;;180.57;102.13;;;10.00;99.90;;;;;;4949736;28;20031;-75
2020/12/22 05:48:06;;;;;;;179.48;101.57;;;10.10;99.90;;;;;;4942958;29;20024;-76
2020/12/22 05:50:32;;;;;;;188.63;101.93;;;10.00;99.90;;;;;;4946404;29;20061;-75
2020/12/22 05:52:59;;;;;;;179.52;98.13;;;10.00;99.90;;;;;;4931471;29;20039;-75
2020/12/22 05:55:28;;;;;;;180.52;99.53;;;10.10;99.90;;;;;;4944621;29;20043;-76
2020/12/22 05:58:11;;;;;;;178.30;97.72;;;10.00;99.90;;;;;;4936877;29;20111;-74
2020/12/22 06:00:42;;;;;;;165.80;91.50;;;9.90;99.90;;;;;;4935903;29;20031;-74
2020/12/22 06:03:17;;;;;;;164.82;93.25;;;10.00;99.90;;;;;;4947036;29;20545;-75
2020/12/22 06:05:45;;;;;;;170.00;95.93;;;10.00;99.90;;;;;;4942737;29;20594;-74
2020/12/22 06:08:13;;;;;;;171.02;98.82;;;10.00;99.90;;;;;;4945833;29;20402;-74
2020/12/22 06:10:40;;;;;;;166.88;98.30;;;10.10;99.90;;;;;;4943762;29;20499;-74
2020/12/22 06:13:08;;;;;;;172.25;95.40;;;10.00;99.90;;;;;;4943474;29;20023;-74
2020/12/22 06:15:34;;;;;;;165.27;91.60;;;10.10;99.90;;;;;;4944618;29;20028;-74
2020/12/22 06:18:01;;;;;;;162.38;89.43;;;10.10;99.90;;;;;;4942495;29;20168;-75
2020/12/22 06:20:28;;;;;;;160.38;93.63;;;10.00;99.90;;;;;;4920643;29;20027;-74
2020/12/22 06:23:08;;;;;;;180.30;94.18;;;10.10;99.90;;;;;;4946672;29;20034;-74
2020/12/22 06:25:35;;;;;;;160.00;85.75;;;10.20;99.90;;;;;;4941158;29;20501;-74
2020/12/22 06:28:01;;;;;;;153.25;85.75;;;10.20;99.90;;;;;;4944486;29;20556;-74
2020/12/22 06:30:35;;;;;;;134.68;83.65;;;10.40;99.90;;;;;;4937034;29;20038;-72
2020/12/22 06:33:20;;;;;;;140.15;83.18;;;10.30;99.90;;;;;;4942391;29;20031;-73
2020/12/22 06:36:04;;;;;;;141.90;82.78;;;10.30;99.90;;;;;;4943784;29;20418;-73
2020/12/22 06:38:55;;;;;;;146.82;85.95;;;10.30;99.90;;;;;;4939821;29;20036;-73
2020/12/22 06:41:26;;;;;;;137.43;87.40;;;10.40;99.90;;;;;;4945922;29;20036;-72
2020/12/22 06:43:55;;;;;;;148.95;80.75;;;10.50;99.90;;;;;;4927766;29;20067;-72
2020/12/22 06:46:33;;;;;;;141.80;83.00;;;10.50;99.90;;;;;;4923046;29;20028;-71
2020/12/22 06:49:00;;;;;;;144.70;83.78;;;10.40;99.90;;;;;;4941253;29;20487;-72
2020/12/22 06:51:33;;;;;;;146.45;83.13;;;10.30;99.90;;;;;;4943357;29;20033;-75
2020/12/22 06:54:04;;;;;;;131.55;77.72;;;10.40;99.90;;;;;;4947254;29;20035;-76
2020/12/22 06:56:43;;;;;;;144.18;82.78;;;10.50;99.90;;;;;;4941093;29;20631;-77
2020/12/22 06:59:13;;;;;;;129.48;79.50;;;10.60;99.90;;;;;;4945667;29;20024;-75
2020/12/22 07:01:45;;;;;;;112.85;74.60;;;10.60;99.90;;;;;;4943146;29;20036;-76
2020/12/22 07:04:17;;;;;;;115.65;74.68;;;10.70;99.90;;;;;;4944474;29;20479;-76
2020/12/22 07:06:57;;;;;;;115.95;70.22;;;10.80;99.90;;;;;;4930206;29;20031;-77
2020/12/22 07:09:31;;;;;;;131.65;77.30;;;10.80;99.90;;;;;;4941342;29;20027;-77
2020/12/22 07:12:11;;;;;;;115.97;73.10;;;10.80;99.90;;;;;;4938988;29;20027;-77
2020/12/22 07:14:39;;;;;;;121.70;71.45;;;10.70;99.90;;;;;;4940891;29;20087;-77
2020/12/22 07:17:05;;;;;;;128.93;74.15;;;10.80;99.90;;;;;;4927104;29;20036;-76
2020/12/22 07:19:33;;;;;;;99.75;65.78;;;10.80;99.90;;;;;;4940175;29;20486;-77
2020/12/22 07:22:04;;;;;;;118.70;69.60;;;11.20;99.90;;;;;;4933925;29;20066;-76
2020/12/22 07:24:31;;;;;;;107.00;65.68;;;11.60;99.90;;;;;;4926731;29;20395;-76
2020/12/22 07:27:00;;;;;;;126.63;71.28;;;11.80;99.90;;;;;;4925029;29;20024;-75
2020/12/22 07:29:26;;;;;;;118.53;70.22;;;11.80;99.90;;;;;;4951965;29;20071;-77
2020/12/22 07:31:52;;;;;;;114.85;69.82;;;11.70;99.90;;;;;;4939684;29;20034;-78
2020/12/22 07:34:19;;;;;;;124.85;72.10;;;11.50;99.90;;;;;;4949502;29;20111;-77
2020/12/22 07:36:46;;;;;;;127.90;71.68;;;11.20;99.90;;;;;;4942757;29;20039;-76
2020/12/22 07:39:23;;;;;;;124.82;70.60;;;10.90;99.90;;;;;;4941884;29;20048;-77
2020/12/22 07:41:50;;;;;;;122.68;74.30;;;10.80;99.90;;;;;;4943820;29;20028;-77
2020/12/22 07:44:21;;;;;;;128.32;72.03;;;10.80;99.90;;;;;;4943319;29;20031;-76
2020/12/22 07:46:52;;;;;;;131.50;75.18;;;10.70;99.90;;;;;;4932624;29;20395;-76
2020/12/22 07:49:18;;;;;;;144.13;75.55;;;10.60;99.90;;;;;;4942165;29;20562;-76
2020/12/22 07:51:48;;;;;;;134.98;74.10;;;10.50;99.90;;;;;;4926585;29;20036;-76
2020/12/22 07:54:15;;;;;;;124.90;69.60;;;10.50;99.90;;;;;;4926008;29;20027;-77
2020/12/22 07:56:43;;;;;;;141.32;72.90;;;10.40;99.90;;;;;;4940015;29;20082;-77
2020/12/22 07:59:11;;;;;;;145.73;73.40;;;10.40;99.90;;;;;;4935298;29;20173;-77
2020/12/22 08:01:45;;;;;;;136.63;69.95;;;10.50;99.90;;;;;;4945043;29;20031;-77
2020/12/22 08:04:26;;;;;;;136.70;73.18;;;10.50;99.90;;;;;;4922522;29;20032;-77
2020/12/22 08:07:03;;;;;;;143.88;75.70;;;10.60;99.90;;;;;;4941993;29;20485;-77
2020/12/22 08:09:30;;;;;;;140.75;73.28;;;10.50;99.90;;;;;;4921925;29;20436;-77
2020/12/22 08:12:01;;;;;;;134.13;73.28;;;10.50;99.90;;;;;;4937800;29;20031;-77
2020/12/22 08:14:28;;;;;;;140.48;72.88;;;10.60;99.90;;;;;;4944133;29;20051;-77
2020/12/22 08:17:00;;;;;;;135.30;72.38;;;10.50;99.90;;;;;;4944198;29;20450;-77
2020/12/22 08:19:29;;;;;;;141.18;73.28;;;10.50;99.90;;;;;;4946334;29;20031;-77
2020/12/22 08:21:56;;;;;;;128.50;70.97;;;10.60;99.90;;;;;;4947940;29;20034;-77
2020/12/22 08:24:23;;;;;;;137.55;71.78;;;10.60;99.90;;;;;;4942441;29;20840;-76
2020/12/22 08:26:50;;;;;;;129.68;72.28;;;10.60;99.90;;;;;;4939307;29;20567;-77
2020/12/22 08:29:17;;;;;;;141.75;72.78;;;10.60;99.90;;;;;;4922422;29;20028;-77
2020/12/22 08:31:45;;;;;;;118.53;68.88;;;10.60;99.90;;;;;;4948976;29;20526;-77
2020/12/22 08:34:14;;;;;;;125.60;69.65;;;10.60;99.90;;;;;;4923855;29;20114;-77
2020/12/22 08:36:42;;;;;;;127.65;69.82;;;10.60;99.90;;;;;;4949303;29;20409;-77
2020/12/22 08:39:21;;;;;;;122.45;65.68;;;10.60;99.90;;;;;;4947036;29;20027;-75
2020/12/22 08:41:55;;;;;;;119.80;64.93;;;10.60;99.90;;;;;;4943922;29;20047;-75
2020/12/22 08:44:22;;;;;;;117.13;62.22;;;10.70;99.90;;;;;;4944559;29;20571;-75
2020/12/22 08:46:48;;;;;;;128.95;69.45;;;10.80;99.90;;;;;;4942007;29;20028;-74
2020/12/22 08:49:16;;;;;;;119.25;69.78;;;10.80;99.90;;;;;;4944050;29;20075;-77
2020/12/22 08:51:45;;;;;;;124.43;66.78;;;10.80;99.90;;;;;;4938637;29;20027;-75
2020/12/22 08:54:11;;;;;;;113.45;63.30;;;10.80;99.90;;;;;;4950409;29;20110;-75
2020/12/22 08:56:38;;;;;;;115.43;64.43;;;10.70;99.90;;;;;;4938223;29;20032;-77
2020/12/22 08:59:06;;;;;;;120.75;65.00;;;10.70;99.90;;;;;;4945711;29;20027;-74
2020/12/22 09:01:46;;;;;;;119.07;66.45;;;10.70;99.90;;;;;;4945118;29;20566;-75
2020/12/22 09:04:13;;;;;;;112.13;63.65;;;10.70;99.90;;;;;;4922860;29;20040;-75
2020/12/22 09:06:46;;;;;;;124.47;69.68;;;10.70;99.90;;;;;;4940155;29;20024;-75
2020/12/22 09:09:24;;;;;;;127.40;70.15;;;10.70;99.90;;;;;;4943401;29;20028;-75
2020/12/22 09:11:49;;;;;;;126.60;69.10;;;10.80;99.90;;;;;;4945525;29;20043;-76
2020/12/22 09:14:19;;;;;;;125.40;68.53;;;10.80;99.90;;;;;;4928169;29;20035;-77
2020/12/22 09:16:55;;;;;;;119.38;66.00;;;10.80;99.90;;;;;;4943743;29;20102;-75
2020/12/22 09:19:42;;;;;;;126.38;66.13;;;10.80;99.90;;;;;;4944262;29;20032;-75
2020/12/22 09:22:09;;;;;;;135.80;70.90;;;10.90;99.90;;;;;;4939805;29;20060;-77
2020/12/22 09:24:35;;;;;;;117.13;69.30;;;10.90;99.90;;;;;;4946987;29;20494;-76
2020/12/22 09:27:03;;;;;;;117.65;70.43;;;10.90;99.90;;;;;;4946543;29;20027;-77
2020/12/22 09:29:30;;;;;;;118.95;67.28;;;10.90;99.90;;;;;;4941060;29;20091;-77
2020/12/22 09:31:58;;;;;;;117.03;68.35;;;11.00;99.90;;;;;;4944811;29;20084;-78
2020/12/22 09:34:26;;;;;;;119.65;69.35;;;11.00;99.90;;;;;;4952444;29;20118;-76
2020/12/22 09:36:54;;;;;;;120.15;66.50;;;11.00;99.90;;;;;;4947929;29;20031;-75
2020/12/22 09:39:21;;;;;;;123.93;70.00;;;11.00;99.90;;;;;;4945954;29;20026;-75
2020/12/22 09:41:48;;;;;;;116.78;67.80;;;11.10;99.90;;;;;;4927667;29;20122;-75
2020/12/22 09:44:14;;;;;;;117.53;67.38;;;11.10;99.90;;;;;;4938202;29;20058;-76
2020/12/22 09:46:50;;;;;;;130.15;71.45;;;11.10;99.90;;;;;;4947534;29;20031;-76
2020/12/22 09:49:17;;;;;;;120.43;69.65;;;11.00;99.90;;;;;;4945862;29;20038;-75
2020/12/22 09:51:44;;;;;;;119.57;74.72;;;11.10;99.90;;;;;;4945910;29;20191;-77
2020/12/22 09:54:10;;;;;;;125.93;77.28;;;11.10;99.90;;;;;;4948375;29;20398;-77
2020/12/22 09:56:36;;;;;;;134.45;79.43;;;11.10;99.90;;;;;;4947043;29;20450;-76
2020/12/22 09:59:12;;;;;;;139.40;85.22;;;11.00;99.90;;;;;;4949407;29;20015;-76
2020/12/22 10:01:39;;;;;;;132.77;78.85;;;11.00;99.90;;;;;;4933765;29;20039;-76
2020/12/22 10:04:05;;;;;;;133.65;77.60;;;11.00;99.90;;;;;;4946761;29;20058;-76
2020/12/22 10:06:31;;;;;;;123.65;69.28;;;11.00;99.90;;;;;;4948591;29;20020;-76
2020/12/22 10:08:57;;;;;;;92.38;55.05;;;11.00;99.90;;;;;;4948233;29;20438;-75
2020/12/22 10:11:30;;;;;;;103.63;62.45;;;10.90;99.90;;;;;;4945600;29;20019;-73
2020/12/22 10:13:56;;;;;;;102.82;63.08;;;10.80;99.90;;;;;;4948084;29;20147;-75
2020/12/22 10:16:23;;;;;;;91.22;54.40;;;10.90;99.90;;;;;;4937400;29;20051;-74
2020/12/22 10:18:49;;;;;;;82.72;48.63;;;10.90;99.90;;;;;;4948411;29;20035;-74
2020/12/22 10:21:18;;;;;;;87.32;53.08;;;11.00;99.90;;;;;;4946205;29;20458;-74
2020/12/22 10:23:48;;;;;;;99.90;58.30;;;11.00;99.90;;;;;;4943873;29;20030;-74
2020/12/22 10:26:16;;;;;;;92.65;60.33;;;11.10;99.90;;;;;;4928733;29;20554;-75
2020/12/22 10:28:43;;;;;;;88.68;50.60;;;11.10;99.90;;;;;;4947728;29;20031;-75
2020/12/22 10:31:18;;;;;;;82.22;52.28;;;11.10;99.90;;;;;;4945985;29;20102;-75
2020/12/22 10:33:44;;;;;;;82.88;50.63;;;11.00;99.90;;;;;;4952107;29;20051;-75
2020/12/22 10:36:18;;;;;;;88.82;53.60;;;11.10;99.90;;;;;;4946943;29;20661;-75
2020/12/22 10:38:45;;;;;;;82.22;51.47;;;11.10;99.90;;;;;;4933458;29;20110;-74
2020/12/22 10:41:11;;;;;;;82.72;52.42;;;11.10;99.90;;;;;;4947145;29;20482;-75
2020/12/22 10:43:37;;;;;;;84.90;52.13;;;11.10;99.90;;;;;;4945621;29;20137;-74
2020/12/22 10:46:03;;;;;;;86.75;55.65;;;11.10;99.90;;;;;;4945841;29;20553;-74
2020/12/22 10:48:30;;;;;;;79.75;49.85;;;11.20;99.90;;;;;;4946957;29;20027;-74
2020/12/22 10:50:57;;;;;;;80.68;49.75;;;11.40;99.90;;;;;;4943001;29;20066;-75
2020/12/22 10:53:23;;;;;;;74.47;44.25;;;11.50;99.90;;;;;;4943767;29;20023;-75
2020/12/22 10:55:49;;;;;;;74.75;44.85;;;11.60;99.90;;;;;;4924619;29;20032;-74
2020/12/22 10:58:15;;;;;;;79.10;52.30;;;11.40;99.90;;;;;;4945580;29;20075;-75
2020/12/22 11:00:41;;;;;;;77.80;46.72;;;11.40;99.90;;;;;;4938734;29;20031;-74
2020/12/22 11:03:09;;;;;;;82.78;52.53;;;11.40;99.90;;;;;;4946018;29;20027;-75
2020/12/22 11:08:21;;;;;;;80.70;46.25;;;11.50;99.90;;;;;;4950823;29;20034;-74
2020/12/22 11:10:49;;;;;;;70.25;46.10;;;11.50;99.90;;;;;;4950196;29;20063;-75
2020/12/22 11:13:16;;;;;;;73.72;48.83;;;11.50;99.90;;;;;;4949030;29;20394;-75
2020/12/22 11:15:44;;;;;;;90.05;52.30;;;11.40;99.90;;;;;;4946971;29;20055;-75
2020/12/22 11:18:10;;;;;;;80.43;48.88;;;11.40;99.90;;;;;;4949363;29;20028;-74
2020/12/22 11:20:36;;;;;;;80.20;48.10;;;11.30;99.90;;;;;;4953354;29;20023;-74
2020/12/22 11:23:03;;;;;;;87.25;51.65;;;11.30;99.90;;;;;;4950880;29;20517;-74
2020/12/22 11:25:29;;;;;;;77.20;48.45;;;11.20;99.90;;;;;;4950285;29;20087;-74
2020/12/22 11:27:55;;;;;;;85.55;48.00;;;11.20;99.90;;;;;;4946724;29;20031;-74
2020/12/22 11:30:20;;;;;;;71.78;43.38;;;11.20;99.90;;;;;;4928653;29;20034;-74
2020/12/22 11:32:46;;;;;;;86.68;49.22;;;11.20;99.90;;;;;;4940196;29;20032;-75
2020/12/22 11:35:13;;;;;;;82.93;50.55;;;11.30;99.90;;;;;;4946226;29;20071;-75
2020/12/22 11:37:39;;;;;;;85.63;51.28;;;11.40;99.90;;;;;;4939722;29;20038;-75
2020/12/22 11:40:05;;;;;;;94.28;56.25;;;11.40;99.90;;;;;;4936865;29;20419;-75
2020/12/22 11:42:32;;;;;;;75.45;45.05;;;11.40;99.90;;;;;;4939028;29;20031;-75
2020/12/22 11:44:58;;;;;;;86.43;51.83;;;11.30;99.90;;;;;;4925754;29;20047;-74
2020/12/22 11:47:24;;;;;;;96.47;55.67;;;11.40;99.90;;;;;;4943554;29;20109;-74
2020/12/22 11:49:50;;;;;;;97.22;57.45;;;11.30;99.90;;;;;;4927214;29;20024;-75
2020/12/22 11:52:18;;;;;;;99.47;57.10;;;11.40;99.90;;;;;;4940687;29;20067;-75
2020/12/22 11:54:44;;;;;;;89.13;49.40;;;11.40;99.90;;;;;;4943883;29;20035;-74
2020/12/22 11:57:10;;;;;;;97.50;56.35;;;11.30;99.90;;;;;;4935620;29;20079;-74
2020/12/22 11:59:36;;;;;;;94.40;56.63;;;11.30;99.90;;;;;;4947067;29;20035;-75
2020/12/22 12:02:05;;;;;;;89.60;54.85;;;11.30;99.90;;;;;;4950690;29;20035;-74
2020/12/22 12:04:32;;;;;;;88.22;53.75;;;11.30;99.90;;;;;;4945504;29;20035;-74
2020/12/22 12:06:58;;;;;;;86.53;54.50;;;11.30;99.90;;;;;;4939393;29;20020;-75
2020/12/22 12:09:24;;;;;;;98.20;57.90;;;11.40;99.90;;;;;;4946324;29;20717;-75
2020/12/22 12:11:51;;;;;;;103.90;58.20;;;11.40;99.90;;;;;;4945629;29;20039;-74
2020/12/22 12:14:18;;;;;;;88.68;55.47;;;11.40;99.90;;;;;;4922273;29;20039;-75
2020/12/22 12:16:47;;;;;;;86.05;50.55;;;11.40;99.90;;;;;;4933649;29;20028;-75
2020/12/22 12:19:13;;;;;;;104.30;57.28;;;11.40;99.90;;;;;;4942258;29;20015;-75
2020/12/22 12:21:40;;;;;;;97.53;51.78;;;11.40;99.90;;;;;;4927528;29;20037;-76